Time;durP1;ratioP1;P1;durP2;ratioP2;P2;SDS_P1;SDS_P2;PMS_P1;PMS_P2;Temp;Humidity;BMP_temperature;BMP_pressure;BME280_temperature;BME280_humidity;BME280_pressure;Samples;Min_cycle;Max_cycle;Signal;HPM_P1;HPM_P2
2023/12/16 00:01:15;;;;;;;13.25;6.50;;;6.90;99.90;;;;;;5047766;28;20032;-77
2023/12/16 00:03:41;;;;;;;11.07;6.28;;;7.00;99.90;;;;;;5048149;28;20218;-78
2023/12/16 00:06:07;;;;;;;10.50;5.78;;;6.90;99.90;;;;;;5064616;28;20153;-78
2023/12/16 00:08:33;;;;;;;11.10;6.32;;;6.90;99.90;;;;;;5065197;28;20031;-79
2023/12/16 00:10:58;;;;;;;8.65;5.50;;;6.90;99.90;;;;;;5056854;28;20311;-78
2023/12/16 00:13:24;;;;;;;12.68;6.95;;;6.90;99.90;;;;;;5065821;28;20192;-77
2023/12/16 00:15:50;;;;;;;12.20;6.55;;;6.90;99.90;;;;;;5048078;28;20029;-77
2023/12/16 00:18:16;;;;;;;12.07;6.22;;;6.90;99.90;;;;;;5047210;28;20029;-77
2023/12/16 00:20:42;;;;;;;10.25;6.03;;;6.80;99.90;;;;;;5048224;28;20013;-77
2023/12/16 00:23:07;;;;;;;9.48;6.00;;;6.80;99.90;;;;;;5047700;28;20064;-78
2023/12/16 00:25:34;;;;;;;11.73;6.70;;;6.80;99.90;;;;;;5047969;28;20025;-78
2023/12/16 00:27:59;;;;;;;11.50;6.90;;;6.90;99.90;;;;;;5060101;28;20020;-79
2023/12/16 00:30:25;;;;;;;9.80;6.43;;;6.90;99.90;;;;;;5065450;28;20041;-79
2023/12/16 00:32:51;;;;;;;10.70;6.35;;;6.80;99.90;;;;;;5065458;28;20100;-78
2023/12/16 00:35:17;;;;;;;11.88;7.47;;;6.90;99.90;;;;;;5030965;28;20044;-78
2023/12/16 00:37:42;;;;;;;10.18;6.50;;;6.90;99.90;;;;;;5065332;28;20235;-79
2023/12/16 00:40:09;;;;;;;12.32;7.22;;;6.90;99.90;;;;;;5064726;28;20330;-78
2023/12/16 00:42:35;;;;;;;11.13;6.63;;;6.90;99.90;;;;;;5047664;28;20023;-78
2023/12/16 00:45:00;;;;;;;10.57;7.15;;;6.90;99.90;;;;;;5033992;28;20042;-78
2023/12/16 00:47:26;;;;;;;11.40;6.38;;;6.90;99.90;;;;;;5045216;28;20107;-78
2023/12/16 00:49:52;;;;;;;12.88;7.10;;;6.90;99.90;;;;;;5068187;28;20055;-78
2023/12/16 00:52:18;;;;;;;10.48;6.82;;;6.90;99.90;;;;;;5064554;28;20024;-78
2023/12/16 00:54:44;;;;;;;10.57;6.68;;;6.90;99.90;;;;;;5080583;28;20166;-79
2023/12/16 00:57:09;;;;;;;10.00;6.32;;;6.90;99.90;;;;;;5046385;28;20165;-79
2023/12/16 00:59:35;;;;;;;10.77;6.72;;;6.90;99.90;;;;;;5064833;28;20104;-79
2023/12/16 01:02:02;;;;;;;11.73;6.53;;;6.80;99.90;;;;;;5026243;28;20240;-79
2023/12/16 01:04:28;;;;;;;9.85;6.32;;;6.80;99.90;;;;;;5059896;28;20032;-78
2023/12/16 01:06:53;;;;;;;8.85;5.88;;;6.80;99.90;;;;;;5045041;28;20037;-78
2023/12/16 01:09:19;;;;;;;12.20;6.45;;;6.90;99.90;;;;;;5043636;28;20096;-78
2023/12/16 01:11:45;;;;;;;11.43;6.93;;;6.90;99.90;;;;;;5027305;28;20349;-79
2023/12/16 01:14:11;;;;;;;11.95;6.55;;;6.90;99.90;;;;;;5043587;28;20029;-79
2023/12/16 01:16:37;;;;;;;11.00;6.65;;;6.90;99.90;;;;;;5044565;28;20327;-79
2023/12/16 01:19:05;;;;;;;11.60;5.80;;;6.90;99.90;;;;;;5068573;28;20071;-78
2023/12/16 01:21:32;;;;;;;13.10;6.40;;;7.00;99.90;;;;;;5063661;28;20021;-78
2023/12/16 01:23:57;;;;;;;8.30;5.93;;;6.90;99.90;;;;;;5046986;28;20032;-79
2023/12/16 01:26:23;;;;;;;8.95;5.45;;;6.90;99.90;;;;;;5064051;28;20013;-79
2023/12/16 01:28:49;;;;;;;8.77;5.40;;;6.90;99.90;;;;;;5030407;28;20025;-79
2023/12/16 01:31:14;;;;;;;9.32;5.30;;;6.90;99.90;;;;;;5064202;28;20031;-79
2023/12/16 01:33:41;;;;;;;9.80;5.80;;;6.90;99.90;;;;;;5062702;28;20022;-79
2023/12/16 01:36:07;;;;;;;9.80;5.47;;;6.90;99.90;;;;;;5011489;28;20025;-79
2023/12/16 01:38:33;;;;;;;10.13;5.88;;;7.00;99.90;;;;;;5043254;28;20084;-79
2023/12/16 01:40:58;;;;;;;11.02;6.47;;;7.00;99.90;;;;;;5043412;28;20092;-79
2023/12/16 01:43:24;;;;;;;10.13;6.28;;;7.00;99.90;;;;;;5043816;28;20037;-78
2023/12/16 01:45:59;;;;;;;9.93;5.80;;;7.00;99.90;;;;;;5026495;28;20093;-77
2023/12/16 01:48:25;;;;;;;10.75;6.25;;;7.00;99.90;;;;;;5043741;28;20037;-77
2023/12/16 01:50:51;;;;;;;10.02;5.68;;;7.00;99.90;;;;;;5074783;28;20092;-76
2023/12/16 01:53:17;;;;;;;11.82;6.00;;;7.00;99.90;;;;;;5063200;28;20319;-77
2023/12/16 01:55:43;;;;;;;8.60;5.65;;;7.00;99.90;;;;;;5027788;28;20029;-77
2023/12/16 01:58:09;;;;;;;10.10;6.40;;;7.00;99.90;;;;;;5044283;28;20064;-77
2023/12/16 02:00:36;;;;;;;12.63;6.15;;;6.90;99.90;;;;;;5048342;28;20101;-75
2023/12/16 02:03:02;;;;;;;10.82;6.22;;;6.80;99.90;;;;;;5056271;28;20060;-77
2023/12/16 02:05:27;;;;;;;10.65;6.47;;;6.70;99.90;;;;;;5027396;28;20025;-77
2023/12/16 02:07:53;;;;;;;11.00;6.03;;;6.70;99.90;;;;;;5044913;28;20080;-77
2023/12/16 02:10:19;;;;;;;12.45;6.60;;;6.70;99.90;;;;;;5046401;28;20048;-77
2023/12/16 02:12:45;;;;;;;9.73;6.05;;;6.70;99.90;;;;;;5063633;28;20075;-78
2023/12/16 02:15:11;;;;;;;11.45;6.50;;;6.80;99.90;;;;;;5064223;28;20254;-77
2023/12/16 02:17:36;;;;;;;11.35;7.00;;;6.70;99.90;;;;;;5064211;28;20036;-77
2023/12/16 02:20:03;;;;;;;11.60;7.75;;;6.70;99.90;;;;;;5046385;28;20032;-78
2023/12/16 02:22:29;;;;;;;12.25;7.55;;;6.60;99.90;;;;;;5078796;28;20024;-77
2023/12/16 02:24:55;;;;;;;11.50;6.72;;;6.60;99.90;;;;;;5046264;28;20180;-77
2023/12/16 02:27:21;;;;;;;11.68;7.05;;;6.60;99.90;;;;;;5052225;28;20029;-77
2023/12/16 02:29:47;;;;;;;11.98;7.03;;;6.50;99.90;;;;;;5043369;28;20089;-78
2023/12/16 02:32:12;;;;;;;12.18;7.45;;;6.50;99.90;;;;;;5043160;28;20026;-78
2023/12/16 02:34:38;;;;;;;12.88;7.68;;;6.60;99.90;;;;;;5043258;28;20037;-78
2023/12/16 02:37:06;;;;;;;13.98;7.45;;;6.60;99.90;;;;;;5043301;28;20023;-79
2023/12/16 02:39:32;;;;;;;10.38;6.95;;;6.60;99.90;;;;;;5058825;28;20048;-79
2023/12/16 02:41:58;;;;;;;9.15;6.30;;;6.70;99.90;;;;;;5043291;28;20101;-79
2023/12/16 02:44:24;;;;;;;10.90;7.15;;;6.70;99.90;;;;;;5028597;28;20025;-78
2023/12/16 02:46:50;;;;;;;11.85;6.45;;;6.70;99.90;;;;;;5043107;28;20034;-77
2023/12/16 02:49:18;;;;;;;11.07;6.72;;;6.80;99.90;;;;;;5044862;28;20037;-77
2023/12/16 02:51:44;;;;;;;12.15;7.03;;;6.80;99.90;;;;;;5062058;28;20063;-79
2023/12/16 02:54:10;;;;;;;11.07;6.65;;;6.80;99.90;;;;;;5028424;28;20028;-79
2023/12/16 02:56:35;;;;;;;11.98;6.35;;;6.80;99.90;;;;;;5063099;28;20032;-79
2023/12/16 02:59:01;;;;;;;10.50;6.82;;;6.80;99.90;;;;;;5062428;28;20049;-79
2023/12/16 03:01:27;;;;;;;12.10;6.35;;;6.80;99.90;;;;;;5042852;28;20100;-79
2023/12/16 03:03:53;;;;;;;9.43;5.72;;;6.80;99.90;;;;;;5043261;28;20346;-77
2023/12/16 03:06:18;;;;;;;9.98;5.80;;;6.70;99.90;;;;;;5058084;28;20041;-76
2023/12/16 03:08:44;;;;;;;14.27;6.43;;;6.70;99.90;;;;;;5043070;28;20033;-77
2023/12/16 03:11:10;;;;;;;11.55;6.03;;;6.60;99.90;;;;;;5057814;28;20025;-77
2023/12/16 03:13:36;;;;;;;11.90;6.20;;;6.70;99.90;;;;;;5041947;28;20087;-77
2023/12/16 03:16:02;;;;;;;8.73;5.65;;;6.70;99.90;;;;;;5041785;28;20299;-77
2023/12/16 03:18:28;;;;;;;9.00;6.38;;;6.70;99.90;;;;;;5041112;28;20025;-77
2023/12/16 03:20:55;;;;;;;9.48;6.13;;;6.70;99.90;;;;;;5045512;28;20092;-80
2023/12/16 03:23:20;;;;;;;11.43;6.32;;;6.60;99.90;;;;;;5041233;28;20028;-79
2023/12/16 03:25:47;;;;;;;10.55;6.07;;;6.60;99.90;;;;;;5008884;28;20060;-78
2023/12/16 03:28:12;;;;;;;10.38;5.57;;;6.60;99.90;;;;;;5043756;28;20021;-78
2023/12/16 03:30:40;;;;;;;10.02;5.22;;;6.60;99.90;;;;;;5045906;28;20063;-78
2023/12/16 03:33:09;;;;;;;8.70;5.55;;;6.60;99.90;;;;;;5029335;28;20037;-78
2023/12/16 03:35:35;;;;;;;8.88;5.95;;;6.60;99.90;;;;;;5029180;28;20028;-78
2023/12/16 03:38:01;;;;;;;9.27;5.53;;;6.70;99.90;;;;;;5061312;28;20103;-79
2023/12/16 03:40:27;;;;;;;9.45;5.55;;;6.70;99.90;;;;;;5048325;28;20028;-78
2023/12/16 03:42:53;;;;;;;8.15;5.35;;;6.70;99.90;;;;;;5066525;28;20327;-78
2023/12/16 03:45:19;;;;;;;8.13;5.05;;;6.70;99.90;;;;;;5048066;28;20025;-79
2023/12/16 03:47:45;;;;;;;9.73;5.68;;;6.70;99.90;;;;;;5032243;28;20071;-78
2023/12/16 03:50:10;;;;;;;18.00;5.72;;;6.80;99.90;;;;;;5047936;28;20028;-79
2023/12/16 03:52:37;;;;;;;10.30;5.70;;;6.80;99.90;;;;;;5048557;28;20029;-79
2023/12/16 03:55:03;;;;;;;10.82;6.05;;;6.90;99.90;;;;;;5061365;28;20197;-79
2023/12/16 03:57:32;;;;;;;9.20;5.95;;;6.90;99.90;;;;;;5065256;28;20091;-78
2023/12/16 04:00:02;;;;;;;9.68;5.90;;;6.90;99.90;;;;;;5032138;28;20033;-78
2023/12/16 04:02:37;;;;;;;8.77;5.18;;;6.90;99.90;;;;;;5050309;28;20101;-78
2023/12/16 04:05:03;;;;;;;9.50;5.57;;;6.90;99.90;;;;;;5032100;28;20025;-78
2023/12/16 04:07:30;;;;;;;7.70;5.30;;;6.90;99.90;;;;;;5048024;28;20047;-79
2023/12/16 04:09:55;;;;;;;9.73;5.32;;;6.90;99.90;;;;;;5030335;28;20063;-78
2023/12/16 04:12:21;;;;;;;9.77;5.63;;;6.90;99.90;;;;;;5062123;28;20033;-78
2023/12/16 04:14:47;;;;;;;7.88;5.38;;;6.90;99.90;;;;;;5048194;28;20201;-78
2023/12/16 04:17:13;;;;;;;7.93;5.38;;;6.90;99.90;;;;;;5047802;28;20021;-79
2023/12/16 04:19:51;;;;;;;9.10;5.75;;;6.90;99.90;;;;;;5031768;28;20047;-78
2023/12/16 04:22:17;;;;;;;8.93;5.40;;;6.90;99.90;;;;;;5065547;28;20364;-78
2023/12/16 04:24:43;;;;;;;8.98;5.35;;;6.90;99.90;;;;;;5065679;28;20076;-79
2023/12/16 04:27:09;;;;;;;9.73;5.30;;;6.90;99.90;;;;;;5056061;28;20076;-79
2023/12/16 04:29:35;;;;;;;8.23;4.15;;;6.90;99.90;;;;;;5060962;28;20041;-77
2023/12/16 04:32:00;;;;;;;11.63;4.45;;;6.90;99.90;;;;;;5045417;28;20022;-78
2023/12/16 04:34:26;;;;;;;8.73;5.10;;;7.00;99.90;;;;;;5044976;28;20035;-78
2023/12/16 04:36:52;;;;;;;8.05;4.90;;;7.00;99.90;;;;;;5045909;28;20195;-77
2023/12/16 04:39:18;;;;;;;9.20;5.25;;;7.00;99.90;;;;;;5025708;28;20112;-78
2023/12/16 04:41:44;;;;;;;9.55;5.53;;;7.00;99.90;;;;;;5045433;28;20033;-77
2023/12/16 04:44:10;;;;;;;8.43;5.25;;;6.90;99.90;;;;;;5059747;28;20021;-78
2023/12/16 04:46:35;;;;;;;7.82;4.90;;;6.90;99.90;;;;;;5064818;28;20057;-78
2023/12/16 04:49:01;;;;;;;9.05;5.40;;;6.90;99.90;;;;;;5065188;28;20045;-78
2023/12/16 04:51:27;;;;;;;8.60;5.15;;;6.80;99.90;;;;;;5065047;28;20299;-77
2023/12/16 04:53:53;;;;;;;8.75;4.82;;;6.80;99.90;;;;;;5065241;28;20024;-78
2023/12/16 04:56:19;;;;;;;10.25;5.32;;;6.80;99.90;;;;;;5064613;28;20310;-78
2023/12/16 04:58:44;;;;;;;10.88;5.57;;;6.70;99.90;;;;;;5045906;28;20049;-78
2023/12/16 05:01:11;;;;;;;9.25;5.40;;;6.80;99.90;;;;;;5061231;28;20040;-78
2023/12/16 05:03:40;;;;;;;8.18;5.15;;;6.70;99.90;;;;;;5064458;28;20362;-78
2023/12/16 05:06:07;;;;;;;10.30;5.70;;;6.70;99.90;;;;;;5047294;28;20307;-77
2023/12/16 05:08:33;;;;;;;10.43;5.70;;;6.70;99.90;;;;;;5063020;28;20108;-78
2023/12/16 05:10:59;;;;;;;8.25;5.22;;;6.70;99.90;;;;;;5030779;28;20031;-77
2023/12/16 05:13:24;;;;;;;7.97;5.05;;;6.60;99.90;;;;;;5064354;28;20045;-78
2023/12/16 05:15:51;;;;;;;8.88;5.30;;;6.60;99.90;;;;;;5064733;28;20219;-77
2023/12/16 05:18:18;;;;;;;8.60;5.28;;;6.60;99.90;;;;;;5031740;28;20311;-78
2023/12/16 05:20:43;;;;;;;7.90;5.03;;;6.60;99.90;;;;;;5044940;28;20025;-78
2023/12/16 05:23:09;;;;;;;7.97;4.95;;;6.60;99.90;;;;;;5043626;28;20041;-78
2023/12/16 05:25:35;;;;;;;7.82;5.03;;;6.50;99.90;;;;;;5044132;28;20056;-78
2023/12/16 05:28:07;;;;;;;7.60;4.78;;;6.60;99.90;;;;;;5044546;28;20013;-77
2023/12/16 05:30:32;;;;;;;8.88;4.63;;;6.60;99.90;;;;;;5059857;28;20101;-78
2023/12/16 05:32:58;;;;;;;8.57;5.60;;;6.60;99.90;;;;;;5059995;28;20215;-78
2023/12/16 05:35:24;;;;;;;8.88;5.53;;;6.60;99.90;;;;;;5053890;28;20307;-78
2023/12/16 05:37:49;;;;;;;9.50;6.63;;;6.60;99.90;;;;;;5064107;28;20267;-78
2023/12/16 05:40:15;;;;;;;11.23;6.15;;;6.60;99.90;;;;;;5030104;28;20104;-78
2023/12/16 05:42:41;;;;;;;9.43;5.50;;;6.60;99.90;;;;;;5063672;28;20009;-78
2023/12/16 05:45:08;;;;;;;9.73;5.60;;;6.60;99.90;;;;;;5064260;28;20037;-79
2023/12/16 05:47:34;;;;;;;8.35;5.22;;;6.50;99.90;;;;;;5062832;28;20025;-78
2023/12/16 05:50:00;;;;;;;11.57;5.97;;;6.50;99.90;;;;;;5060962;28;20052;-77
2023/12/16 05:52:26;;;;;;;9.48;5.40;;;6.40;99.90;;;;;;5043515;28;20219;-77
2023/12/16 05:54:52;;;;;;;9.23;5.38;;;6.30;99.90;;;;;;5030178;28;20031;-78
2023/12/16 05:57:18;;;;;;;8.07;4.95;;;6.30;99.90;;;;;;5029765;28;20025;-78
2023/12/16 05:59:44;;;;;;;9.50;5.32;;;6.20;99.90;;;;;;5030000;28;20036;-77
2023/12/16 06:02:12;;;;;;;8.45;5.13;;;6.20;99.90;;;;;;5046350;28;20025;-77
2023/12/16 06:04:42;;;;;;;12.30;5.40;;;6.10;99.90;;;;;;5063272;28;20182;-77
2023/12/16 06:07:08;;;;;;;8.45;5.13;;;6.10;99.90;;;;;;5028383;28;20211;-78
2023/12/16 06:09:34;;;;;;;10.32;5.80;;;6.10;99.90;;;;;;5045845;28;20108;-77
2023/12/16 06:12:06;;;;;;;6.97;4.63;;;6.10;99.90;;;;;;5042918;28;20350;-77
2023/12/16 06:14:32;;;;;;;7.85;5.53;;;6.10;99.90;;;;;;5043330;28;20029;-77
2023/12/16 06:16:57;;;;;;;7.68;5.07;;;6.10;99.90;;;;;;5026468;28;20064;-78
2023/12/16 06:19:23;;;;;;;8.10;5.47;;;6.20;99.90;;;;;;5042794;28;20104;-78
2023/12/16 06:21:49;;;;;;;8.88;5.53;;;6.20;99.90;;;;;;5044695;28;20057;-78
2023/12/16 06:24:21;;;;;;;11.77;5.55;;;6.20;99.90;;;;;;5046686;28;20033;-78
2023/12/16 06:26:47;;;;;;;8.93;5.22;;;6.20;99.90;;;;;;5042632;28;20014;-77
2023/12/16 06:29:13;;;;;;;10.05;5.97;;;6.30;99.90;;;;;;5042554;28;20089;-77
2023/12/16 06:31:38;;;;;;;12.48;5.93;;;6.30;99.90;;;;;;5042915;28;20029;-78
2023/12/16 06:34:04;;;;;;;9.00;5.50;;;6.20;99.90;;;;;;5043251;28;20021;-78
2023/12/16 06:36:30;;;;;;;9.23;5.43;;;6.30;99.90;;;;;;5043176;28;20037;-78
2023/12/16 06:38:55;;;;;;;10.80;6.20;;;6.20;99.90;;;;;;5025748;28;20060;-77
2023/12/16 06:41:21;;;;;;;14.73;6.55;;;6.20;99.90;;;;;;5052456;28;20028;-79
2023/12/16 06:43:47;;;;;;;13.35;6.55;;;6.20;99.90;;;;;;5043042;28;20022;-78
2023/12/16 06:46:12;;;;;;;10.15;5.65;;;6.10;99.90;;;;;;5058560;28;20057;-78
2023/12/16 06:48:39;;;;;;;12.15;5.07;;;6.10;99.90;;;;;;5042815;28;20029;-78
2023/12/16 06:51:04;;;;;;;9.02;5.45;;;6.10;99.90;;;;;;5042464;28;20092;-78
2023/12/16 06:53:30;;;;;;;7.82;4.60;;;6.10;99.90;;;;;;5044671;28;20099;-77
2023/12/16 06:55:57;;;;;;;7.32;4.68;;;6.00;99.90;;;;;;5062847;28;20088;-79
2023/12/16 06:58:23;;;;;;;8.45;4.90;;;6.00;99.90;;;;;;5042840;28;20079;-78
2023/12/16 07:00:48;;;;;;;6.93;4.95;;;6.00;99.90;;;;;;5041973;28;20037;-78
2023/12/16 07:03:14;;;;;;;9.15;5.45;;;6.00;99.90;;;;;;5057738;28;20025;-78
2023/12/16 07:05:40;;;;;;;7.40;4.80;;;5.90;99.90;;;;;;5043660;28;20029;-76
2023/12/16 07:08:05;;;;;;;7.43;5.38;;;5.90;99.90;;;;;;5047972;28;20116;-78
2023/12/16 07:10:31;;;;;;;7.50;4.70;;;5.90;99.90;;;;;;5047130;28;20053;-78
2023/12/16 07:12:57;;;;;;;8.43;5.28;;;5.90;99.90;;;;;;5046344;28;20330;-78
2023/12/16 07:15:23;;;;;;;7.60;4.65;;;5.90;99.90;;;;;;5042500;28;20026;-78
2023/12/16 07:17:49;;;;;;;8.00;5.05;;;5.90;99.90;;;;;;5048654;28;20021;-76
2023/12/16 07:20:18;;;;;;;8.45;4.93;;;5.90;99.90;;;;;;5043103;28;20064;-77
2023/12/16 07:22:44;;;;;;;8.60;5.20;;;5.90;99.90;;;;;;5025097;28;20087;-77
2023/12/16 07:25:09;;;;;;;8.70;5.18;;;5.90;99.90;;;;;;5009049;28;20045;-77
2023/12/16 07:27:35;;;;;;;7.40;4.85;;;6.00;99.90;;;;;;5041691;28;20231;-77
2023/12/16 07:30:01;;;;;;;8.68;4.75;;;6.00;99.90;;;;;;5042788;28;20358;-78
2023/12/16 07:32:31;;;;;;;7.53;4.88;;;6.00;99.90;;;;;;5041777;28;20043;-79
2023/12/16 07:34:56;;;;;;;8.95;5.22;;;6.00;99.90;;;;;;5053772;28;20100;-78
2023/12/16 07:37:22;;;;;;;7.22;5.03;;;6.10;99.90;;;;;;5062606;28;20304;-79
2023/12/16 07:39:48;;;;;;;8.60;4.95;;;6.00;99.90;;;;;;5061899;28;20029;-79
2023/12/16 07:42:15;;;;;;;7.43;4.82;;;6.00;99.90;;;;;;5044871;28;20029;-77
2023/12/16 07:44:40;;;;;;;8.43;5.00;;;6.00;99.90;;;;;;5027941;28;20021;-79
2023/12/16 07:47:06;;;;;;;7.97;4.70;;;6.10;99.90;;;;;;5028236;28;20055;-80
2023/12/16 07:49:32;;;;;;;7.47;4.70;;;6.10;99.90;;;;;;5060645;28;20024;-78
2023/12/16 07:52:00;;;;;;;8.27;4.72;;;6.00;99.90;;;;;;5040704;28;20100;-77
2023/12/16 07:54:29;;;;;;;8.48;5.00;;;6.10;99.90;;;;;;5028000;28;20040;-78
2023/12/16 07:56:55;;;;;;;8.45;4.93;;;6.10;99.90;;;;;;5044557;28;20097;-77
2023/12/16 07:59:21;;;;;;;7.72;4.88;;;6.10;99.90;;;;;;5062547;28;20044;-78
2023/12/16 08:01:54;;;;;;;7.55;5.00;;;6.10;99.90;;;;;;5062279;28;20040;-77
2023/12/16 08:04:20;;;;;;;8.07;5.38;;;6.10;99.90;;;;;;5062152;28;20035;-77
2023/12/16 08:06:46;;;;;;;8.10;5.10;;;6.20;99.90;;;;;;5027712;28;20056;-78
2023/12/16 08:09:13;;;;;;;7.78;5.13;;;6.20;99.90;;;;;;5012142;28;20018;-77
2023/12/16 08:11:39;;;;;;;7.55;5.32;;;6.30;99.90;;;;;;5024569;28;20033;-77
2023/12/16 08:14:06;;;;;;;9.02;5.13;;;6.30;99.90;;;;;;5044397;28;20133;-78
2023/12/16 08:16:32;;;;;;;8.30;4.60;;;6.40;99.90;;;;;;5060884;28;20025;-78
2023/12/16 08:18:57;;;;;;;9.50;5.32;;;6.40;99.90;;;;;;5028266;28;20111;-77
2023/12/16 08:21:23;;;;;;;9.18;5.28;;;6.50;99.90;;;;;;5045779;28;20189;-79
2023/12/16 08:23:49;;;;;;;9.55;5.38;;;6.60;99.90;;;;;;5027919;28;20308;-79
2023/12/16 08:26:15;;;;;;;9.15;4.97;;;6.60;99.90;;;;;;5048908;28;20086;-78
2023/12/16 08:28:41;;;;;;;8.48;5.10;;;6.50;99.90;;;;;;5045137;28;20280;-79
2023/12/16 08:31:07;;;;;;;7.57;4.63;;;6.50;99.90;;;;;;5045744;28;20044;-78
2023/12/16 08:33:34;;;;;;;8.05;4.90;;;6.50;99.90;;;;;;5045237;28;20029;-77
2023/12/16 08:36:00;;;;;;;8.20;4.90;;;6.60;99.90;;;;;;5045747;28;20041;-77
2023/12/16 08:38:26;;;;;;;8.77;4.50;;;6.60;99.90;;;;;;5045576;28;20025;-77
2023/12/16 08:40:54;;;;;;;8.05;5.20;;;6.60;99.90;;;;;;5045006;28;20081;-77
2023/12/16 08:43:19;;;;;;;8.27;5.05;;;6.60;99.90;;;;;;5048221;28;20247;-78
2023/12/16 08:45:45;;;;;;;8.43;4.65;;;6.70;99.90;;;;;;5044741;28;20099;-78
2023/12/16 08:48:11;;;;;;;9.15;5.10;;;6.60;99.90;;;;;;5045316;28;20038;-78
2023/12/16 08:50:36;;;;;;;7.15;4.55;;;6.60;99.90;;;;;;5058195;28;20100;-77
2023/12/16 08:53:03;;;;;;;7.43;4.47;;;6.70;99.90;;;;;;5065361;28;20188;-77
2023/12/16 08:55:29;;;;;;;9.02;4.85;;;6.70;99.90;;;;;;5047599;28;20109;-77
2023/12/16 08:57:55;;;;;;;8.75;4.75;;;6.70;99.90;;;;;;5030769;28;20048;-78
2023/12/16 09:00:20;;;;;;;8.45;5.03;;;6.80;99.90;;;;;;5059986;28;20064;-77
2023/12/16 09:02:46;;;;;;;8.93;4.95;;;6.70;99.90;;;;;;5064563;28;20033;-78
2023/12/16 09:05:12;;;;;;;7.35;4.43;;;6.80;99.90;;;;;;5065195;28;20029;-75
2023/12/16 09:07:37;;;;;;;7.30;4.60;;;6.80;99.90;;;;;;5064719;28;20044;-77
2023/12/16 09:10:04;;;;;;;8.00;4.60;;;6.90;99.90;;;;;;5065099;28;20029;-78
2023/12/16 09:12:30;;;;;;;9.85;5.60;;;6.90;99.90;;;;;;5064838;28;20035;-78
2023/12/16 09:14:56;;;;;;;7.95;5.03;;;7.00;99.90;;;;;;5064799;28;20207;-76
2023/12/16 09:17:21;;;;;;;6.95;5.03;;;7.00;99.90;;;;;;5051056;28;20047;-81
2023/12/16 09:19:47;;;;;;;9.38;5.13;;;7.10;99.90;;;;;;5044212;28;20040;-78
2023/12/16 09:22:13;;;;;;;8.80;5.00;;;7.10;99.90;;;;;;5060578;28;20031;-79
2023/12/16 09:24:39;;;;;;;10.32;4.82;;;7.20;99.90;;;;;;5043620;28;20029;-79
2023/12/16 09:27:14;;;;;;;9.27;5.28;;;7.30;99.90;;;;;;5044576;28;20311;-79
2023/12/16 09:29:39;;;;;;;7.82;5.03;;;7.30;99.90;;;;;;5049359;28;20025;-77
2023/12/16 09:32:06;;;;;;;7.82;5.10;;;7.30;99.90;;;;;;5046740;28;20032;-80
2023/12/16 09:34:32;;;;;;;7.25;5.00;;;7.40;99.90;;;;;;5037514;28;20050;-79
2023/12/16 09:36:57;;;;;;;9.38;5.38;;;7.50;99.90;;;;;;5044557;28;20319;-77
2023/12/16 09:39:24;;;;;;;7.82;5.10;;;7.40;99.90;;;;;;5044395;28;20315;-78
2023/12/16 09:41:51;;;;;;;7.22;4.53;;;7.40;99.90;;;;;;5043798;28;20025;-78
2023/12/16 09:44:19;;;;;;;7.93;5.00;;;7.50;99.90;;;;;;5044751;28;20029;-74
2023/12/16 09:46:46;;;;;;;7.75;4.75;;;7.50;99.90;;;;;;5035567;28;20032;-76
2023/12/16 09:49:15;;;;;;;7.63;4.80;;;7.60;99.90;;;;;;5062626;28;20024;-75
2023/12/16 09:51:42;;;;;;;9.27;5.45;;;7.70;99.90;;;;;;5043948;28;20208;-76
2023/12/16 09:54:08;;;;;;;9.43;5.88;;;7.70;99.90;;;;;;5046049;28;20033;-77
2023/12/16 09:56:35;;;;;;;8.68;5.10;;;7.80;99.90;;;;;;5039837;28;20084;-77
2023/12/16 09:59:03;;;;;;;10.27;5.70;;;7.70;99.90;;;;;;5056324;28;20041;-75
2023/12/16 10:01:29;;;;;;;8.10;5.30;;;7.60;99.90;;;;;;5051182;28;20075;-77
2023/12/16 10:03:56;;;;;;;10.65;5.47;;;7.70;99.90;;;;;;5054996;28;20037;-76
2023/12/16 10:06:22;;;;;;;8.50;5.38;;;7.60;99.90;;;;;;5052484;28;20040;-75
2023/12/16 10:08:48;;;;;;;9.38;5.40;;;7.60;99.90;;;;;;5006114;28;20045;-76
2023/12/16 10:14:15;;;;;;;10.93;6.22;;;7.90;99.90;;;;;;5042446;28;20045;-76
2023/12/16 10:16:48;;;;;;;8.82;5.15;;;7.90;99.90;;;;;;5025574;28;20216;-77
2023/12/16 10:19:16;;;;;;;8.32;5.22;;;8.00;99.90;;;;;;5043901;28;20033;-77
2023/12/16 10:21:42;;;;;;;;;;;8.00;99.90;;;;;;5044289;28;20088;-74
2023/12/16 10:24:08;;;;;;;7.93;5.03;;;8.10;99.90;;;;;;5043758;28;19901;-74
2023/12/16 10:26:41;;;;;;;9.00;5.32;;;8.10;99.90;;;;;;5025440;28;20188;-76
2023/12/16 10:29:07;;;;;;;9.57;5.80;;;8.20;99.90;;;;;;5042162;28;20307;-76
2023/12/16 10:31:35;;;;;;;10.25;5.38;;;8.10;99.90;;;;;;5042873;28;20044;-77
2023/12/16 10:34:01;;;;;;;9.25;5.55;;;8.20;99.90;;;;;;5041678;28;20115;-77
2023/12/16 10:40:17;;;;;;;7.97;5.03;;;8.30;99.90;;;;;;5023278;28;20032;-77
2023/12/16 10:42:44;;;;;;;7.72;5.05;;;8.20;99.90;;;;;;5056556;28;20033;-75
2023/12/16 10:45:19;;;;;;;11.25;5.05;;;8.10;99.90;;;;;;5042686;28;20311;-77
2023/12/16 10:47:50;;;;;;;7.93;4.65;;;8.40;99.90;;;;;;5025101;28;20031;-77
2023/12/16 10:50:26;;;;;;;9.45;4.80;;;8.50;99.90;;;;;;5041409;28;20037;-76
2023/12/16 10:53:02;;;;;;;7.80;4.72;;;8.60;99.90;;;;;;5039068;28;20021;-76
2023/12/16 10:55:29;;;;;;;6.97;4.65;;;8.70;99.90;;;;;;5061669;28;20052;-76
2023/12/16 10:57:57;;;;;;;10.48;5.03;;;8.80;99.90;;;;;;5055776;28;20060;-76
2023/12/16 11:00:26;;;;;;;6.68;4.63;;;9.00;99.90;;;;;;5042443;28;20037;-76
2023/12/16 11:03:09;;;;;;;7.70;4.68;;;9.00;99.90;;;;;;5041795;28;20021;-77
2023/12/16 11:05:43;;;;;;;7.93;4.53;;;9.10;99.90;;;;;;5042292;28;20319;-77
2023/12/16 11:08:08;;;;;;;7.60;4.72;;;9.20;99.90;;;;;;5041987;28;20021;-78
2023/12/16 11:10:35;;;;;;;7.45;4.90;;;9.10;99.90;;;;;;5042714;28;20072;-79
2023/12/16 11:13:03;;;;;;;7.93;4.97;;;9.30;99.90;;;;;;5042726;28;20033;-76
2023/12/16 11:15:32;;;;;;;9.18;5.40;;;9.20;99.90;;;;;;5043180;28;20093;-77
2023/12/16 11:18:16;;;;;;;6.53;4.90;;;9.20;99.90;;;;;;5052360;28;20189;-75
2023/12/16 11:20:52;;;;;;;8.50;4.85;;;9.30;99.90;;;;;;5049327;28;20041;-75
2023/12/16 11:23:19;;;;;;;8.70;4.93;;;9.30;99.90;;;;;;5049417;28;20041;-78
2023/12/16 11:25:55;;;;;;;8.63;5.20;;;9.20;99.90;;;;;;5039655;28;20025;-77
2023/12/16 11:28:21;;;;;;;9.10;4.65;;;9.30;99.90;;;;;;5043393;28;20060;-77
2023/12/16 11:30:47;;;;;;;11.18;5.25;;;9.30;99.90;;;;;;5042325;28;20053;-76
2023/12/16 11:33:13;;;;;;;9.02;5.30;;;9.40;99.90;;;;;;5042162;28;20048;-78
2023/12/16 11:35:46;;;;;;;8.55;5.10;;;9.50;99.90;;;;;;5041812;28;20022;-79
2023/12/16 11:38:58;;;;;;;7.43;5.13;;;9.60;99.90;;;;;;5024422;28;20056;-76
2023/12/16 11:41:42;;;;;;;9.00;5.50;;;9.40;99.90;;;;;;5041563;28;20327;-75
2023/12/16 11:44:08;;;;;;;10.43;5.18;;;9.70;99.90;;;;;;5024515;28;20030;-75
2023/12/16 11:46:44;;;;;;;7.25;4.93;;;9.80;99.90;;;;;;5041093;28;20367;-76
2023/12/16 11:49:14;;;;;;;8.98;4.82;;;9.90;99.90;;;;;;5026672;28;20030;-77
2023/12/16 11:51:43;;;;;;;10.50;5.32;;;9.70;99.90;;;;;;5045557;28;20044;-76
2023/12/16 11:54:11;;;;;;;7.47;5.15;;;9.60;99.90;;;;;;5045962;28;20037;-77
2023/12/16 11:56:37;;;;;;;10.18;5.95;;;9.50;99.90;;;;;;5045408;28;20037;-77
2023/12/16 11:59:04;;;;;;;8.05;5.20;;;9.70;99.90;;;;;;5044380;28;20056;-76
2023/12/16 12:01:31;;;;;;;7.90;4.78;;;9.80;99.90;;;;;;5043604;28;20106;-76
2023/12/16 12:03:58;;;;;;;9.00;5.20;;;10.00;99.90;;;;;;5044953;28;20022;-77
2023/12/16 12:06:25;;;;;;;8.63;5.53;;;10.10;99.90;;;;;;5034825;28;20389;-79
2023/12/16 12:08:51;;;;;;;9.45;5.38;;;10.20;99.90;;;;;;5045217;28;20029;-78
2023/12/16 12:11:18;;;;;;;8.40;5.03;;;10.30;99.90;;;;;;5045761;28;20044;-77
2023/12/16 12:13:44;;;;;;;7.00;4.80;;;10.40;99.90;;;;;;5011667;28;20025;-77
2023/12/16 12:16:12;;;;;;;7.25;4.70;;;10.60;99.90;;;;;;5028140;28;20025;-76
2023/12/16 12:18:39;;;;;;;8.37;4.30;;;11.10;99.90;;;;;;5044327;28;20342;-76
2023/12/16 12:21:10;;;;;;;7.22;4.75;;;11.50;99.40;;;;;;5044966;28;20026;-77
2023/12/16 12:23:40;;;;;;;7.68;5.30;;;12.50;97.90;;;;;;5045547;28;20349;-77
2023/12/16 12:26:06;;;;;;;8.55;5.05;;;13.60;95.20;;;;;;5044195;28;20100;-77
2023/12/16 12:28:33;;;;;;;10.35;4.35;;;14.70;93.30;;;;;;5045145;28;20061;-77
2023/12/16 12:31:02;;;;;;;7.28;4.72;;;15.50;90.80;;;;;;5059489;28;20033;-77
2023/12/16 12:33:29;;;;;;;6.53;4.07;;;16.00;88.70;;;;;;5065582;28;20319;-76
2023/12/16 12:35:55;;;;;;;7.20;4.63;;;16.30;88.50;;;;;;5057280;28;20025;-76
2023/12/16 12:38:22;;;;;;;6.47;4.15;;;16.80;84.60;;;;;;5044399;28;20024;-77
2023/12/16 12:41:04;;;;;;;7.03;4.38;;;17.00;82.60;;;;;;5043076;28;20383;-77
2023/12/16 12:43:33;;;;;;;6.50;4.10;;;16.60;84.00;;;;;;5045138;28;20044;-77
2023/12/16 12:46:17;;;;;;;;;;;16.50;82.50;;;;;;5027225;28;20053;-76
2023/12/16 12:48:54;;;;;;;6.78;4.45;;;15.80;83.10;;;;;;5044714;28;19991;-77
2023/12/16 12:51:20;;;;;;;6.57;4.18;;;15.20;85.50;;;;;;5044684;28;20033;-77
2023/12/16 12:53:55;;;;;;;8.50;4.50;;;15.10;85.60;;;;;;5044327;28;20093;-77
2023/12/16 12:56:21;;;;;;;8.85;4.63;;;14.40;86.60;;;;;;5039573;28;20025;-77
2023/12/16 12:58:47;;;;;;;7.32;4.50;;;14.00;88.90;;;;;;5037880;28;20048;-77